sensor_id;sensor_type;location;lat;lon;timestamp;P1;durP1;ratioP1;P2;durP2;ratioP2
56399;SDS011;42298;53.638;9.876;2023-03-04T00:02:21;17.83;;;4.10;;
56399;SDS011;42298;53.638;9.876;2023-03-04T00:04:46;14.67;;;3.60;;
56399;SDS011;42298;53.638;9.876;2023-03-04T00:07:11;11.37;;;3.60;;
56399;SDS011;42298;53.638;9.876;2023-03-04T00:09:40;16.37;;;4.03;;
56399;SDS011;42298;53.638;9.876;2023-03-04T00:12:07;15.77;;;3.37;;
56399;SDS011;42298;53.638;9.876;2023-03-04T00:14:32;15.87;;;3.40;;
56399;SDS011;42298;53.638;9.876;2023-03-04T00:16:58;14.60;;;2.70;;
56399;SDS011;42298;53.638;9.876;2023-03-04T00:19:23;11.33;;;2.80;;
56399;SDS011;42298;53.638;9.876;2023-03-04T00:21:48;17.17;;;3.67;;
56399;SDS011;42298;53.638;9.876;2023-03-04T00:24:14;15.57;;;3.90;;
56399;SDS011;42298;53.638;9.876;2023-03-04T00:26:39;17.20;;;3.20;;
56399;SDS011;42298;53.638;9.876;2023-03-04T00:29:04;13.60;;;3.07;;
56399;SDS011;42298;53.638;9.876;2023-03-04T00:31:29;14.20;;;3.20;;
56399;SDS011;42298;53.638;9.876;2023-03-04T00:33:57;15.27;;;3.10;;
56399;SDS011;42298;53.638;9.876;2023-03-04T00:36:23;12.37;;;3.20;;
56399;SDS011;42298;53.638;9.876;2023-03-04T00:38:49;13.37;;;3.40;;
56399;SDS011;42298;53.638;9.876;2023-03-04T00:41:14;14.13;;;3.57;;
56399;SDS011;42298;53.638;9.876;2023-03-04T00:43:39;14.53;;;3.67;;
56399;SDS011;42298;53.638;9.876;2023-03-04T00:46:05;13.33;;;2.63;;
56399;SDS011;42298;53.638;9.876;2023-03-04T00:48:31;15.07;;;3.00;;
56399;SDS011;42298;53.638;9.876;2023-03-04T00:50:56;11.50;;;3.10;;
56399;SDS011;42298;53.638;9.876;2023-03-04T00:53:21;9.87;;;2.60;;
56399;SDS011;42298;53.638;9.876;2023-03-04T00:55:47;12.57;;;3.00;;
56399;SDS011;42298;53.638;9.876;2023-03-04T00:58:13;12.40;;;2.60;;
56399;SDS011;42298;53.638;9.876;2023-03-04T01:00:38;12.13;;;2.93;;
56399;SDS011;42298;53.638;9.876;2023-03-04T01:03:06;15.00;;;2.47;;
56399;SDS011;42298;53.638;9.876;2023-03-04T01:05:32;9.27;;;2.50;;
56399;SDS011;42298;53.638;9.876;2023-03-04T01:07:59;14.93;;;2.73;;
56399;SDS011;42298;53.638;9.876;2023-03-04T01:10:25;10.53;;;2.33;;
56399;SDS011;42298;53.638;9.876;2023-03-04T01:12:50;13.57;;;2.60;;
56399;SDS011;42298;53.638;9.876;2023-03-04T01:15:16;10.33;;;2.50;;
56399;SDS011;42298;53.638;9.876;2023-03-04T01:17:41;12.10;;;2.30;;
56399;SDS011;42298;53.638;9.876;2023-03-04T01:20:07;13.50;;;2.60;;
56399;SDS011;42298;53.638;9.876;2023-03-04T01:22:48;12.07;;;3.10;;
56399;SDS011;42298;53.638;9.876;2023-03-04T01:25:14;9.50;;;2.73;;
56399;SDS011;42298;53.638;9.876;2023-03-04T01:27:39;13.27;;;2.70;;
56399;SDS011;42298;53.638;9.876;2023-03-04T01:30:04;10.60;;;2.50;;
56399;SDS011;42298;53.638;9.876;2023-03-04T01:32:30;14.67;;;2.87;;
56399;SDS011;42298;53.638;9.876;2023-03-04T01:34:56;13.23;;;2.40;;
56399;SDS011;42298;53.638;9.876;2023-03-04T01:37:21;13.13;;;2.50;;
56399;SDS011;42298;53.638;9.876;2023-03-04T01:39:46;12.07;;;2.60;;
56399;SDS011;42298;53.638;9.876;2023-03-04T01:42:19;14.13;;;2.80;;
56399;SDS011;42298;53.638;9.876;2023-03-04T01:44:46;9.53;;;2.10;;
56399;SDS011;42298;53.638;9.876;2023-03-04T01:47:13;13.80;;;2.20;;
56399;SDS011;42298;53.638;9.876;2023-03-04T01:49:39;12.70;;;2.50;;
56399;SDS011;42298;53.638;9.876;2023-03-04T01:52:05;9.40;;;2.33;;
56399;SDS011;42298;53.638;9.876;2023-03-04T01:54:34;10.83;;;2.13;;
56399;SDS011;42298;53.638;9.876;2023-03-04T01:56:59;12.00;;;2.50;;
56399;SDS011;42298;53.638;9.876;2023-03-04T01:59:25;12.63;;;2.63;;
56399;SDS011;42298;53.638;9.876;2023-03-04T02:01:55;13.63;;;2.60;;
56399;SDS011;42298;53.638;9.876;2023-03-04T02:04:23;16.27;;;2.77;;
56399;SDS011;42298;53.638;9.876;2023-03-04T02:06:50;12.07;;;2.60;;
56399;SDS011;42298;53.638;9.876;2023-03-04T02:09:16;15.57;;;2.73;;
56399;SDS011;42298;53.638;9.876;2023-03-04T02:11:42;13.13;;;2.70;;
56399;SDS011;42298;53.638;9.876;2023-03-04T02:14:09;10.07;;;2.63;;
56399;SDS011;42298;53.638;9.876;2023-03-04T02:16:35;14.63;;;2.93;;
56399;SDS011;42298;53.638;9.876;2023-03-04T02:19:01;14.07;;;2.50;;
56399;SDS011;42298;53.638;9.876;2023-03-04T02:21:31;9.60;;;2.67;;
56399;SDS011;42298;53.638;9.876;2023-03-04T02:26:54;9.03;;;2.30;;
56399;SDS011;42298;53.638;9.876;2023-03-04T02:29:20;12.13;;;2.50;;
56399;SDS011;42298;53.638;9.876;2023-03-04T02:31:46;12.47;;;2.70;;
56399;SDS011;42298;53.638;9.876;2023-03-04T02:34:14;17.13;;;3.13;;
56399;SDS011;42298;53.638;9.876;2023-03-04T02:37:00;12.97;;;2.80;;
56399;SDS011;42298;53.638;9.876;2023-03-04T02:41:57;11.07;;;2.90;;
56399;SDS011;42298;53.638;9.876;2023-03-04T02:44:27;12.70;;;2.70;;
56399;SDS011;42298;53.638;9.876;2023-03-04T02:46:54;15.53;;;3.07;;
56399;SDS011;42298;53.638;9.876;2023-03-04T02:49:22;15.83;;;3.10;;
56399;SDS011;42298;53.638;9.876;2023-03-04T02:51:50;13.23;;;3.17;;
56399;SDS011;42298;53.638;9.876;2023-03-04T02:54:36;10.93;;;2.07;;
56399;SDS011;42298;53.638;9.876;2023-03-04T02:57:04;11.47;;;2.67;;
56399;SDS011;42298;53.638;9.876;2023-03-04T02:59:31;13.53;;;2.90;;
56399;SDS011;42298;53.638;9.876;2023-03-04T03:01:57;12.77;;;2.83;;
56399;SDS011;42298;53.638;9.876;2023-03-04T03:04:23;15.40;;;2.77;;
56399;SDS011;42298;53.638;9.876;2023-03-04T03:06:49;14.57;;;2.83;;
56399;SDS011;42298;53.638;9.876;2023-03-04T03:09:14;11.40;;;2.70;;
56399;SDS011;42298;53.638;9.876;2023-03-04T03:11:40;13.67;;;2.70;;
56399;SDS011;42298;53.638;9.876;2023-03-04T03:14:05;13.93;;;3.07;;
56399;SDS011;42298;53.638;9.876;2023-03-04T03:16:31;17.27;;;2.93;;
56399;SDS011;42298;53.638;9.876;2023-03-04T03:18:56;12.43;;;3.03;;
56399;SDS011;42298;53.638;9.876;2023-03-04T03:21:22;16.37;;;3.07;;
56399;SDS011;42298;53.638;9.876;2023-03-04T03:23:47;16.03;;;3.27;;
56399;SDS011;42298;53.638;9.876;2023-03-04T03:26:13;9.63;;;2.10;;
56399;SDS011;42298;53.638;9.876;2023-03-04T03:28:38;14.97;;;2.63;;
56399;SDS011;42298;53.638;9.876;2023-03-04T03:31:03;11.13;;;2.33;;
56399;SDS011;42298;53.638;9.876;2023-03-04T03:33:29;12.40;;;2.43;;
56399;SDS011;42298;53.638;9.876;2023-03-04T03:35:54;16.67;;;3.03;;
56399;SDS011;42298;53.638;9.876;2023-03-04T03:38:19;17.70;;;3.30;;
56399;SDS011;42298;53.638;9.876;2023-03-04T03:40:45;8.77;;;2.33;;
56399;SDS011;42298;53.638;9.876;2023-03-04T03:43:10;15.60;;;2.97;;
56399;SDS011;42298;53.638;9.876;2023-03-04T03:45:36;17.03;;;3.10;;
56399;SDS011;42298;53.638;9.876;2023-03-04T03:48:01;14.57;;;3.13;;
56399;SDS011;42298;53.638;9.876;2023-03-04T03:50:27;14.03;;;2.87;;
56399;SDS011;42298;53.638;9.876;2023-03-04T03:52:53;15.53;;;3.07;;
56399;SDS011;42298;53.638;9.876;2023-03-04T03:55:19;12.87;;;2.90;;
56399;SDS011;42298;53.638;9.876;2023-03-04T03:57:44;14.20;;;2.70;;
56399;SDS011;42298;53.638;9.876;2023-03-04T04:00:10;13.97;;;2.57;;
56399;SDS011;42298;53.638;9.876;2023-03-04T04:02:35;16.93;;;3.10;;
56399;SDS011;42298;53.638;9.876;2023-03-04T04:05:01;11.60;;;2.60;;
56399;SDS011;42298;53.638;9.876;2023-03-04T04:07:26;15.73;;;2.63;;
56399;SDS011;42298;53.638;9.876;2023-03-04T04:09:51;11.37;;;2.80;;
56399;SDS011;42298;53.638;9.876;2023-03-04T04:12:17;10.43;;;2.77;;
56399;SDS011;42298;53.638;9.876;2023-03-04T04:14:43;14.80;;;2.90;;
56399;SDS011;42298;53.638;9.876;2023-03-04T04:17:09;15.33;;;2.80;;
56399;SDS011;42298;53.638;9.876;2023-03-04T04:19:35;13.53;;;3.23;;
56399;SDS011;42298;53.638;9.876;2023-03-04T04:22:00;14.27;;;2.60;;
56399;SDS011;42298;53.638;9.876;2023-03-04T04:24:26;15.40;;;3.47;;
56399;SDS011;42298;53.638;9.876;2023-03-04T04:26:52;10.80;;;3.20;;
56399;SDS011;42298;53.638;9.876;2023-03-04T04:29:17;13.43;;;3.03;;
56399;SDS011;42298;53.638;9.876;2023-03-04T04:31:43;12.90;;;3.20;;
56399;SDS011;42298;53.638;9.876;2023-03-04T04:34:08;12.60;;;3.00;;
56399;SDS011;42298;53.638;9.876;2023-03-04T04:36:33;9.83;;;2.90;;
56399;SDS011;42298;53.638;9.876;2023-03-04T04:38:59;11.17;;;3.07;;
56399;SDS011;42298;53.638;9.876;2023-03-04T04:41:25;16.53;;;2.60;;
56399;SDS011;42298;53.638;9.876;2023-03-04T04:43:58;17.20;;;4.00;;
56399;SDS011;42298;53.638;9.876;2023-03-04T04:46:23;13.33;;;3.47;;
56399;SDS011;42298;53.638;9.876;2023-03-04T04:48:50;12.97;;;3.23;;
56399;SDS011;42298;53.638;9.876;2023-03-04T04:51:15;10.03;;;3.03;;
56399;SDS011;42298;53.638;9.876;2023-03-04T04:53:41;12.43;;;2.97;;
56399;SDS011;42298;53.638;9.876;2023-03-04T04:56:14;12.10;;;2.77;;
56399;SDS011;42298;53.638;9.876;2023-03-04T04:58:44;13.77;;;2.87;;
56399;SDS011;42298;53.638;9.876;2023-03-04T05:01:10;14.20;;;2.40;;
56399;SDS011;42298;53.638;9.876;2023-03-04T05:03:36;13.10;;;2.73;;
56399;SDS011;42298;53.638;9.876;2023-03-04T05:06:02;15.83;;;3.10;;
56399;SDS011;42298;53.638;9.876;2023-03-04T05:08:28;11.57;;;2.70;;
56399;SDS011;42298;53.638;9.876;2023-03-04T05:10:54;11.60;;;2.70;;
56399;SDS011;42298;53.638;9.876;2023-03-04T05:13:19;10.03;;;2.77;;
56399;SDS011;42298;53.638;9.876;2023-03-04T05:15:45;22.17;;;3.90;;
56399;SDS011;42298;53.638;9.876;2023-03-04T05:18:10;20.70;;;3.57;;
56399;SDS011;42298;53.638;9.876;2023-03-04T05:20:35;17.20;;;3.83;;
56399;SDS011;42298;53.638;9.876;2023-03-04T05:23:01;11.60;;;3.93;;
56399;SDS011;42298;53.638;9.876;2023-03-04T05:25:27;13.63;;;3.50;;
56399;SDS011;42298;53.638;9.876;2023-03-04T05:27:54;18.33;;;4.20;;
56399;SDS011;42298;53.638;9.876;2023-03-04T05:30:20;20.33;;;4.47;;
56399;SDS011;42298;53.638;9.876;2023-03-04T05:32:45;17.50;;;4.07;;
56399;SDS011;42298;53.638;9.876;2023-03-04T05:35:11;15.43;;;4.73;;
56399;SDS011;42298;53.638;9.876;2023-03-04T05:37:36;15.90;;;4.00;;
56399;SDS011;42298;53.638;9.876;2023-03-04T05:40:02;17.13;;;4.30;;
56399;SDS011;42298;53.638;9.876;2023-03-04T05:42:27;16.73;;;4.43;;
56399;SDS011;42298;53.638;9.876;2023-03-04T05:44:53;16.53;;;4.87;;
56399;SDS011;42298;53.638;9.876;2023-03-04T05:47:18;18.50;;;4.00;;
56399;SDS011;42298;53.638;9.876;2023-03-04T05:49:43;20.50;;;4.03;;
56399;SDS011;42298;53.638;9.876;2023-03-04T05:52:09;19.33;;;4.83;;
56399;SDS011;42298;53.638;9.876;2023-03-04T05:54:35;20.77;;;4.67;;
56399;SDS011;42298;53.638;9.876;2023-03-04T05:57:00;20.67;;;4.73;;
56399;SDS011;42298;53.638;9.876;2023-03-04T05:59:26;17.17;;;5.03;;
56399;SDS011;42298;53.638;9.876;2023-03-04T06:01:52;22.27;;;4.80;;
56399;SDS011;42298;53.638;9.876;2023-03-04T06:04:17;21.20;;;4.63;;
56399;SDS011;42298;53.638;9.876;2023-03-04T06:06:43;20.43;;;4.73;;
56399;SDS011;42298;53.638;9.876;2023-03-04T06:09:10;23.63;;;4.83;;
56399;SDS011;42298;53.638;9.876;2023-03-04T06:11:36;22.10;;;4.90;;
56399;SDS011;42298;53.638;9.876;2023-03-04T06:14:01;23.30;;;5.17;;
56399;SDS011;42298;53.638;9.876;2023-03-04T06:16:27;23.20;;;5.10;;
56399;SDS011;42298;53.638;9.876;2023-03-04T06:18:52;19.70;;;4.27;;
56399;SDS011;42298;53.638;9.876;2023-03-04T06:21:18;20.37;;;4.50;;
56399;SDS011;42298;53.638;9.876;2023-03-04T06:23:44;18.60;;;4.40;;
56399;SDS011;42298;53.638;9.876;2023-03-04T06:26:11;21.77;;;4.40;;
56399;SDS011;42298;53.638;9.876;2023-03-04T06:28:39;17.90;;;4.10;;
56399;SDS011;42298;53.638;9.876;2023-03-04T06:31:05;22.23;;;4.20;;
56399;SDS011;42298;53.638;9.876;2023-03-04T06:33:30;24.40;;;4.90;;
56399;SDS011;42298;53.638;9.876;2023-03-04T06:35:56;19.63;;;4.90;;
56399;SDS011;42298;53.638;9.876;2023-03-04T06:38:22;15.07;;;4.23;;
56399;SDS011;42298;53.638;9.876;2023-03-04T06:40:47;18.63;;;4.27;;
56399;SDS011;42298;53.638;9.876;2023-03-04T06:43:12;23.63;;;5.20;;
56399;SDS011;42298;53.638;9.876;2023-03-04T06:45:38;15.70;;;3.17;;
56399;SDS011;42298;53.638;9.876;2023-03-04T06:48:03;15.37;;;3.57;;
56399;SDS011;42298;53.638;9.876;2023-03-04T06:50:29;14.63;;;3.20;;
56399;SDS011;42298;53.638;9.876;2023-03-04T06:52:57;17.93;;;3.33;;
56399;SDS011;42298;53.638;9.876;2023-03-04T06:55:23;17.90;;;3.70;;
56399;SDS011;42298;53.638;9.876;2023-03-04T06:57:48;15.17;;;3.37;;
56399;SDS011;42298;53.638;9.876;2023-03-04T07:00:14;16.63;;;4.70;;
56399;SDS011;42298;53.638;9.876;2023-03-04T07:02:40;14.87;;;3.60;;
56399;SDS011;42298;53.638;9.876;2023-03-04T07:05:06;14.93;;;3.33;;
56399;SDS011;42298;53.638;9.876;2023-03-04T07:07:31;22.17;;;3.43;;
56399;SDS011;42298;53.638;9.876;2023-03-04T07:09:57;12.97;;;3.93;;
56399;SDS011;42298;53.638;9.876;2023-03-04T07:12:22;12.60;;;3.63;;
56399;SDS011;42298;53.638;9.876;2023-03-04T07:14:47;13.73;;;3.30;;
56399;SDS011;42298;53.638;9.876;2023-03-04T07:17:13;18.90;;;3.20;;
56399;SDS011;42298;53.638;9.876;2023-03-04T07:19:38;19.87;;;3.63;;
56399;SDS011;42298;53.638;9.876;2023-03-04T07:22:05;20.83;;;4.00;;
56399;SDS011;42298;53.638;9.876;2023-03-04T07:24:31;14.83;;;3.03;;
56399;SDS011;42298;53.638;9.876;2023-03-04T07:26:56;14.97;;;3.50;;
56399;SDS011;42298;53.638;9.876;2023-03-04T07:29:21;14.73;;;3.40;;
56399;SDS011;42298;53.638;9.876;2023-03-04T07:31:47;16.07;;;3.50;;
56399;SDS011;42298;53.638;9.876;2023-03-04T07:34:12;24.37;;;4.50;;
56399;SDS011;42298;53.638;9.876;2023-03-04T07:36:38;19.40;;;4.10;;
56399;SDS011;42298;53.638;9.876;2023-03-04T07:39:05;17.53;;;3.93;;
56399;SDS011;42298;53.638;9.876;2023-03-04T07:41:30;19.60;;;4.23;;
56399;SDS011;42298;53.638;9.876;2023-03-04T07:44:00;19.07;;;4.60;;
56399;SDS011;42298;53.638;9.876;2023-03-04T07:46:25;22.03;;;4.27;;
56399;SDS011;42298;53.638;9.876;2023-03-04T07:48:51;22.23;;;4.50;;
56399;SDS011;42298;53.638;9.876;2023-03-04T07:51:19;14.97;;;4.47;;
56399;SDS011;42298;53.638;9.876;2023-03-04T07:53:46;18.57;;;3.80;;
56399;SDS011;42298;53.638;9.876;2023-03-04T07:56:15;26.10;;;4.83;;
56399;SDS011;42298;53.638;9.876;2023-03-04T07:58:43;19.63;;;3.87;;
56399;SDS011;42298;53.638;9.876;2023-03-04T08:01:14;28.43;;;4.60;;
56399;SDS011;42298;53.638;9.876;2023-03-04T08:03:40;20.03;;;4.67;;
56399;SDS011;42298;53.638;9.876;2023-03-04T08:06:06;22.87;;;5.17;;
56399;SDS011;42298;53.638;9.876;2023-03-04T08:08:32;20.10;;;4.60;;
56399;SDS011;42298;53.638;9.876;2023-03-04T08:10:58;24.57;;;5.60;;
56399;SDS011;42298;53.638;9.876;2023-03-04T08:13:23;23.53;;;5.20;;
56399;SDS011;42298;53.638;9.876;2023-03-04T08:15:49;21.90;;;4.90;;
56399;SDS011;42298;53.638;9.876;2023-03-04T08:18:14;20.50;;;4.57;;
56399;SDS011;42298;53.638;9.876;2023-03-04T08:20:40;18.97;;;3.73;;
56399;SDS011;42298;53.638;9.876;2023-03-04T08:23:08;20.37;;;4.87;;
56399;SDS011;42298;53.638;9.876;2023-03-04T08:25:37;17.83;;;4.30;;
56399;SDS011;42298;53.638;9.876;2023-03-04T08:28:03;15.70;;;4.47;;
56399;SDS011;42298;53.638;9.876;2023-03-04T08:30:29;21.47;;;4.60;;
56399;SDS011;42298;53.638;9.876;2023-03-04T08:32:54;16.93;;;4.87;;
56399;SDS011;42298;53.638;9.876;2023-03-04T08:35:19;21.53;;;4.73;;
56399;SDS011;42298;53.638;9.876;2023-03-04T08:37:45;23.50;;;4.70;;
56399;SDS011;42298;53.638;9.876;2023-03-04T08:40:10;19.87;;;4.80;;
56399;SDS011;42298;53.638;9.876;2023-03-04T08:42:36;23.27;;;5.07;;
56399;SDS011;42298;53.638;9.876;2023-03-04T08:45:02;21.33;;;5.20;;
56399;SDS011;42298;53.638;9.876;2023-03-04T08:47:27;21.40;;;4.77;;
56399;SDS011;42298;53.638;9.876;2023-03-04T08:49:53;23.03;;;4.57;;
56399;SDS011;42298;53.638;9.876;2023-03-04T08:52:18;20.07;;;4.67;;
56399;SDS011;42298;53.638;9.876;2023-03-04T08:54:43;22.97;;;4.57;;
56399;SDS011;42298;53.638;9.876;2023-03-04T08:57:09;23.90;;;5.57;;
56399;SDS011;42298;53.638;9.876;2023-03-04T08:59:34;23.80;;;5.10;;
56399;SDS011;42298;53.638;9.876;2023-03-04T09:01:59;24.33;;;5.00;;
56399;SDS011;42298;53.638;9.876;2023-03-04T09:04:24;20.87;;;5.20;;
56399;SDS011;42298;53.638;9.876;2023-03-04T09:06:50;20.13;;;5.13;;
56399;SDS011;42298;53.638;9.876;2023-03-04T09:09:15;17.83;;;4.73;;
56399;SDS011;42298;53.638;9.876;2023-03-04T09:11:40;21.17;;;4.63;;
56399;SDS011;42298;53.638;9.876;2023-03-04T09:14:06;22.03;;;4.23;;
56399;SDS011;42298;53.638;9.876;2023-03-04T09:16:31;22.40;;;4.53;;
56399;SDS011;42298;53.638;9.876;2023-03-04T09:18:56;17.70;;;3.90;;
56399;SDS011;42298;53.638;9.876;2023-03-04T09:21:23;20.50;;;4.87;;
56399;SDS011;42298;53.638;9.876;2023-03-04T09:23:49;21.10;;;5.23;;
56399;SDS011;42298;53.638;9.876;2023-03-04T09:26:15;16.97;;;4.37;;
56399;SDS011;42298;53.638;9.876;2023-03-04T09:28:45;19.57;;;4.97;;
56399;SDS011;42298;53.638;9.876;2023-03-04T09:31:11;18.93;;;4.30;;
56399;SDS011;42298;53.638;9.876;2023-03-04T09:33:38;24.50;;;4.90;;
56399;SDS011;42298;53.638;9.876;2023-03-04T09:36:07;21.40;;;4.87;;
56399;SDS011;42298;53.638;9.876;2023-03-04T09:38:33;21.77;;;4.70;;
56399;SDS011;42298;53.638;9.876;2023-03-04T09:40:58;24.03;;;5.47;;
56399;SDS011;42298;53.638;9.876;2023-03-04T09:43:31;23.47;;;5.00;;
56399;SDS011;42298;53.638;9.876;2023-03-04T09:45:59;19.73;;;4.80;;
56399;SDS011;42298;53.638;9.876;2023-03-04T09:48:28;23.47;;;4.60;;
56399;SDS011;42298;53.638;9.876;2023-03-04T09:51:05;19.50;;;4.40;;
56399;SDS011;42298;53.638;9.876;2023-03-04T09:53:47;19.03;;;4.60;;
56399;SDS011;42298;53.638;9.876;2023-03-04T09:56:21;18.13;;;4.83;;
56399;SDS011;42298;53.638;9.876;2023-03-04T10:01:22;24.87;;;5.23;;
56399;SDS011;42298;53.638;9.876;2023-03-04T10:07:21;19.93;;;4.63;;
56399;SDS011;42298;53.638;9.876;2023-03-04T10:09:51;18.47;;;4.40;;
56399;SDS011;42298;53.638;9.876;2023-03-04T10:12:26;21.90;;;5.30;;
56399;SDS011;42298;53.638;9.876;2023-03-04T10:14:59;21.13;;;4.13;;
56399;SDS011;42298;53.638;9.876;2023-03-04T10:17:32;21.90;;;5.73;;
56399;SDS011;42298;53.638;9.876;2023-03-04T10:20:04;21.60;;;5.17;;
56399;SDS011;42298;53.638;9.876;2023-03-04T10:22:45;24.07;;;5.37;;
56399;SDS011;42298;53.638;9.876;2023-03-04T10:25:26;24.87;;;5.53;;
56399;SDS011;42298;53.638;9.876;2023-03-04T10:27:55;21.07;;;4.47;;
56399;SDS011;42298;53.638;9.876;2023-03-04T10:33:21;21.27;;;4.87;;
56399;SDS011;42298;53.638;9.876;2023-03-04T10:35:51;24.43;;;5.13;;
56399;SDS011;42298;53.638;9.876;2023-03-04T10:38:23;19.67;;;4.70;;
56399;SDS011;42298;53.638;9.876;2023-03-04T10:40:49;25.43;;;5.27;;
56399;SDS011;42298;53.638;9.876;2023-03-04T10:43:19;21.03;;;4.90;;
56399;SDS011;42298;53.638;9.876;2023-03-04T10:45:45;27.27;;;5.00;;
56399;SDS011;42298;53.638;9.876;2023-03-04T10:48:16;18.10;;;4.77;;
56399;SDS011;42298;53.638;9.876;2023-03-04T10:50:44;12.97;;;3.97;;
56399;SDS011;42298;53.638;9.876;2023-03-04T10:53:18;28.73;;;5.87;;
56399;SDS011;42298;53.638;9.876;2023-03-04T11:01:55;18.90;;;4.50;;
56399;SDS011;42298;53.638;9.876;2023-03-04T11:04:24;21.30;;;4.30;;
56399;SDS011;42298;53.638;9.876;2023-03-04T11:06:52;22.57;;;4.60;;
56399;SDS011;42298;53.638;9.876;2023-03-04T11:09:25;19.53;;;4.47;;
56399;SDS011;42298;53.638;9.876;2023-03-04T11:11:59;21.50;;;4.57;;
56399;SDS011;42298;53.638;9.876;2023-03-04T11:17:20;19.70;;;4.70;;
56399;SDS011;42298;53.638;9.876;2023-03-04T11:19:57;24.03;;;5.60;;
56399;SDS011;42298;53.638;9.876;2023-03-04T11:22:32;18.97;;;4.90;;
56399;SDS011;42298;53.638;9.876;2023-03-04T11:25:00;20.80;;;5.17;;
56399;SDS011;42298;53.638;9.876;2023-03-04T11:27:33;22.67;;;4.83;;
56399;SDS011;42298;53.638;9.876;2023-03-04T11:30:28;22.70;;;5.00;;
56399;SDS011;42298;53.638;9.876;2023-03-04T11:33:19;20.17;;;4.70;;
56399;SDS011;42298;53.638;9.876;2023-03-04T11:38:19;21.57;;;5.20;;
56399;SDS011;42298;53.638;9.876;2023-03-04T11:41:02;19.43;;;4.80;;
56399;SDS011;42298;53.638;9.876;2023-03-04T11:43:34;21.53;;;4.87;;
56399;SDS011;42298;53.638;9.876;2023-03-04T11:49:00;18.07;;;4.47;;
56399;SDS011;42298;53.638;9.876;2023-03-04T11:51:46;20.27;;;4.17;;
56399;SDS011;42298;53.638;9.876;2023-03-04T11:54:43;20.43;;;5.00;;
56399;SDS011;42298;53.638;9.876;2023-03-04T12:05:47;22.60;;;4.80;;
56399;SDS011;42298;53.638;9.876;2023-03-04T12:13:56;22.07;;;5.43;;
56399;SDS011;42298;53.638;9.876;2023-03-04T12:25:20;20.60;;;4.87;;
56399;SDS011;42298;53.638;9.876;2023-03-04T12:53:37;18.90;;;4.20;;
56399;SDS011;42298;53.638;9.876;2023-03-04T12:59:13;18.40;;;4.37;;
56399;SDS011;42298;53.638;9.876;2023-03-04T13:02:01;19.93;;;4.23;;
56399;SDS011;42298;53.638;9.876;2023-03-04T13:07:35;13.10;;;3.53;;
56399;SDS011;42298;53.638;9.876;2023-03-04T13:10:12;18.67;;;5.07;;
56399;SDS011;42298;53.638;9.876;2023-03-04T13:15:17;16.00;;;4.53;;
56399;SDS011;42298;53.638;9.876;2023-03-04T13:17:52;22.00;;;4.67;;
56399;SDS011;42298;53.638;9.876;2023-03-04T13:21:01;19.00;;;4.00;;
56399;SDS011;42298;53.638;9.876;2023-03-04T13:25:42;13.80;;;3.83;;
56399;SDS011;42298;53.638;9.876;2023-03-04T13:28:17;18.63;;;4.67;;
56399;SDS011;42298;53.638;9.876;2023-03-04T13:35:48;12.70;;;3.50;;
56399;SDS011;42298;53.638;9.876;2023-03-04T13:41:14;13.03;;;3.70;;
56399;SDS011;42298;53.638;9.876;2023-03-04T13:48:58;13.17;;;3.53;;
56399;SDS011;42298;53.638;9.876;2023-03-04T13:51:29;16.60;;;4.17;;
56399;SDS011;42298;53.638;9.876;2023-03-04T14:01:31;14.37;;;3.47;;
56399;SDS011;42298;53.638;9.876;2023-03-04T14:04:15;17.17;;;4.10;;
56399;SDS011;42298;53.638;9.876;2023-03-04T14:06:52;15.17;;;4.07;;
56399;SDS011;42298;53.638;9.876;2023-03-04T14:09:20;13.23;;;4.37;;
56399;SDS011;42298;53.638;9.876;2023-03-04T14:11:48;14.37;;;4.47;;
56399;SDS011;42298;53.638;9.876;2023-03-04T14:14:17;13.33;;;3.60;;
56399;SDS011;42298;53.638;9.876;2023-03-04T14:16:46;13.53;;;3.57;;
56399;SDS011;42298;53.638;9.876;2023-03-04T14:19:16;15.53;;;4.07;;
56399;SDS011;42298;53.638;9.876;2023-03-04T14:21:48;14.33;;;3.60;;
56399;SDS011;42298;53.638;9.876;2023-03-04T14:24:14;15.17;;;3.83;;
56399;SDS011;42298;53.638;9.876;2023-03-04T14:26:41;19.73;;;3.80;;
56399;SDS011;42298;53.638;9.876;2023-03-04T14:29:21;13.10;;;3.30;;
56399;SDS011;42298;53.638;9.876;2023-03-04T14:31:47;17.47;;;3.67;;
56399;SDS011;42298;53.638;9.876;2023-03-04T14:34:24;15.83;;;3.90;;
56399;SDS011;42298;53.638;9.876;2023-03-04T14:36:55;12.53;;;3.53;;
56399;SDS011;42298;53.638;9.876;2023-03-04T14:39:21;15.97;;;3.80;;
56399;SDS011;42298;53.638;9.876;2023-03-04T14:41:50;14.63;;;4.10;;
56399;SDS011;42298;53.638;9.876;2023-03-04T14:44:29;13.00;;;3.53;;
56399;SDS011;42298;53.638;9.876;2023-03-04T14:47:06;17.10;;;4.23;;
56399;SDS011;42298;53.638;9.876;2023-03-04T14:49:40;15.23;;;3.73;;
56399;SDS011;42298;53.638;9.876;2023-03-04T14:52:05;20.60;;;3.27;;
56399;SDS011;42298;53.638;9.876;2023-03-04T14:54:32;13.07;;;3.13;;
56399;SDS011;42298;53.638;9.876;2023-03-04T14:57:01;12.83;;;3.40;;
56399;SDS011;42298;53.638;9.876;2023-03-04T14:59:45;15.23;;;4.50;;
56399;SDS011;42298;53.638;9.876;2023-03-04T15:02:22;17.43;;;3.80;;
56399;SDS011;42298;53.638;9.876;2023-03-04T15:04:55;16.80;;;4.40;;
56399;SDS011;42298;53.638;9.876;2023-03-04T15:07:27;13.13;;;3.00;;
56399;SDS011;42298;53.638;9.876;2023-03-04T15:09:55;12.27;;;3.30;;
56399;SDS011;42298;53.638;9.876;2023-03-04T15:12:22;14.60;;;3.60;;
56399;SDS011;42298;53.638;9.876;2023-03-04T15:14:52;20.17;;;4.00;;
56399;SDS011;42298;53.638;9.876;2023-03-04T15:22:35;16.67;;;3.33;;
56399;SDS011;42298;53.638;9.876;2023-03-04T15:25:01;16.37;;;3.73;;
56399;SDS011;42298;53.638;9.876;2023-03-04T15:27:28;16.27;;;4.40;;
56399;SDS011;42298;53.638;9.876;2023-03-04T15:29:56;15.77;;;3.33;;
56399;SDS011;42298;53.638;9.876;2023-03-04T15:32:32;16.23;;;2.90;;
56399;SDS011;42298;53.638;9.876;2023-03-04T15:34:58;13.70;;;3.57;;
56399;SDS011;42298;53.638;9.876;2023-03-04T15:37:24;15.47;;;3.50;;
56399;SDS011;42298;53.638;9.876;2023-03-04T15:39:52;16.73;;;4.07;;
56399;SDS011;42298;53.638;9.876;2023-03-04T15:42:19;17.73;;;3.60;;
56399;SDS011;42298;53.638;9.876;2023-03-04T15:44:44;14.07;;;3.30;;
56399;SDS011;42298;53.638;9.876;2023-03-04T15:47:10;17.40;;;3.67;;
56399;SDS011;42298;53.638;9.876;2023-03-04T15:49:41;12.60;;;3.63;;
56399;SDS011;42298;53.638;9.876;2023-03-04T15:52:12;15.90;;;3.90;;
56399;SDS011;42298;53.638;9.876;2023-03-04T15:54:42;16.13;;;3.40;;
56399;SDS011;42298;53.638;9.876;2023-03-04T15:57:14;19.77;;;4.73;;
56399;SDS011;42298;53.638;9.876;2023-03-04T15:59:51;15.63;;;3.27;;
56399;SDS011;42298;53.638;9.876;2023-03-04T16:02:21;14.67;;;3.40;;
56399;SDS011;42298;53.638;9.876;2023-03-04T16:04:48;11.80;;;3.30;;
56399;SDS011;42298;53.638;9.876;2023-03-04T16:07:20;15.37;;;2.97;;
56399;SDS011;42298;53.638;9.876;2023-03-04T16:09:57;16.03;;;3.03;;
56399;SDS011;42298;53.638;9.876;2023-03-04T16:12:26;16.30;;;3.13;;
56399;SDS011;42298;53.638;9.876;2023-03-04T16:14:52;14.13;;;3.53;;
56399;SDS011;42298;53.638;9.876;2023-03-04T16:17:17;14.33;;;3.40;;
56399;SDS011;42298;53.638;9.876;2023-03-04T16:19:43;14.40;;;3.10;;
56399;SDS011;42298;53.638;9.876;2023-03-04T16:22:12;12.70;;;3.13;;
56399;SDS011;42298;53.638;9.876;2023-03-04T16:24:39;13.73;;;3.40;;
56399;SDS011;42298;53.638;9.876;2023-03-04T16:27:09;12.23;;;3.10;;
56399;SDS011;42298;53.638;9.876;2023-03-04T16:29:36;14.63;;;3.33;;
56399;SDS011;42298;53.638;9.876;2023-03-04T16:32:02;13.53;;;3.10;;
56399;SDS011;42298;53.638;9.876;2023-03-04T16:34:27;16.30;;;3.20;;
56399;SDS011;42298;53.638;9.876;2023-03-04T16:36:53;15.30;;;3.20;;